sensor_id;sensor_type;location;lat;lon;timestamp;P1;durP1;ratioP1;P2;durP2;ratioP2
13057;SDS011;6595;49.578;11.012;2023-10-31T00:00:23;14.8;;;9.5;;
13057;SDS011;6595;49.578;11.012;2023-10-31T00:02:23;15.6;;;9.5;;
13057;SDS011;6595;49.578;11.012;2023-10-31T00:04:24;14.7;;;9.3;;
13057;SDS011;6595;49.578;11.012;2023-10-31T00:06:24;14.7;;;9.3;;
13057;SDS011;6595;49.578;11.012;2023-10-31T00:08:23;16.1;;;9.7;;
13057;SDS011;6595;49.578;11.012;2023-10-31T00:10:23;15.0;;;9.5;;
13057;SDS011;6595;49.578;11.012;2023-10-31T00:12:23;15.7;;;9.1;;
13057;SDS011;6595;49.578;11.012;2023-10-31T00:14:23;15.7;;;9.1;;
13057;SDS011;6595;49.578;11.012;2023-10-31T00:16:23;14.2;;;8.9;;
13057;SDS011;6595;49.578;11.012;2023-10-31T00:18:23;13.5;;;8.8;;
13057;SDS011;6595;49.578;11.012;2023-10-31T00:20:23;13.5;;;8.8;;
13057;SDS011;6595;49.578;11.012;2023-10-31T00:22:24;13.9;;;8.3;;
13057;SDS011;6595;49.578;11.012;2023-10-31T00:24:23;13.9;;;8.3;;
13057;SDS011;6595;49.578;11.012;2023-10-31T00:26:23;11.9;;;7.5;;
13057;SDS011;6595;49.578;11.012;2023-10-31T00:28:23;10.4;;;7.2;;
13057;SDS011;6595;49.578;11.012;2023-10-31T00:30:24;11.0;;;7.2;;
13057;SDS011;6595;49.578;11.012;2023-10-31T00:32:24;13.3;;;7.4;;
13057;SDS011;6595;49.578;11.012;2023-10-31T00:34:23;10.5;;;6.9;;
13057;SDS011;6595;49.578;11.012;2023-10-31T00:36:23;10.5;;;6.9;;
13057;SDS011;6595;49.578;11.012;2023-10-31T00:38:23;9.8;;;6.0;;
13057;SDS011;6595;49.578;11.012;2023-10-31T00:40:23;10.2;;;6.5;;
13057;SDS011;6595;49.578;11.012;2023-10-31T00:42:24;9.0;;;5.7;;
13057;SDS011;6595;49.578;11.012;2023-10-31T00:44:24;9.1;;;5.0;;
13057;SDS011;6595;49.578;11.012;2023-10-31T00:46:23;9.1;;;5.0;;
13057;SDS011;6595;49.578;11.012;2023-10-31T00:48:23;8.0;;;4.5;;
13057;SDS011;6595;49.578;11.012;2023-10-31T00:50:23;6.8;;;4.4;;
13057;SDS011;6595;49.578;11.012;2023-10-31T00:52:23;5.4;;;3.9;;
13057;SDS011;6595;49.578;11.012;2023-10-31T00:54:23;5.4;;;3.9;;
13057;SDS011;6595;49.578;11.012;2023-10-31T00:56:24;5.4;;;4.1;;
13057;SDS011;6595;49.578;11.012;2023-10-31T00:58:24;4.6;;;3.5;;
13057;SDS011;6595;49.578;11.012;2023-10-31T01:00:23;5.2;;;3.6;;
13057;SDS011;6595;49.578;11.012;2023-10-31T01:02:23;5.2;;;3.6;;
13057;SDS011;6595;49.578;11.012;2023-10-31T01:04:23;5.4;;;3.9;;
13057;SDS011;6595;49.578;11.012;2023-10-31T01:06:23;5.8;;;3.8;;
13057;SDS011;6595;49.578;11.012;2023-10-31T01:08:24;5.8;;;3.8;;
13057;SDS011;6595;49.578;11.012;2023-10-31T01:10:23;5.4;;;3.4;;
13057;SDS011;6595;49.578;11.012;2023-10-31T01:12:23;5.4;;;3.4;;
13057;SDS011;6595;49.578;11.012;2023-10-31T01:14:23;4.1;;;2.9;;
13057;SDS011;6595;49.578;11.012;2023-10-31T01:16:23;4.2;;;3.1;;
13057;SDS011;6595;49.578;11.012;2023-10-31T01:18:24;4.3;;;2.8;;
13057;SDS011;6595;49.578;11.012;2023-10-31T01:20:23;3.8;;;2.7;;
13057;SDS011;6595;49.578;11.012;2023-10-31T01:22:23;3.8;;;2.7;;
13057;SDS011;6595;49.578;11.012;2023-10-31T01:24:23;4.6;;;3.0;;
13057;SDS011;6595;49.578;11.012;2023-10-31T01:26:24;4.3;;;2.8;;
13057;SDS011;6595;49.578;11.012;2023-10-31T01:28:23;7.3;;;3.0;;
13057;SDS011;6595;49.578;11.012;2023-10-31T01:30:23;4.7;;;3.0;;
13057;SDS011;6595;49.578;11.012;2023-10-31T01:32:23;4.7;;;3.0;;
13057;SDS011;6595;49.578;11.012;2023-10-31T01:34:24;4.0;;;2.8;;
13057;SDS011;6595;49.578;11.012;2023-10-31T01:36:24;4.3;;;2.7;;
13057;SDS011;6595;49.578;11.012;2023-10-31T01:38:23;3.3;;;2.4;;
13057;SDS011;6595;49.578;11.012;2023-10-31T01:40:23;3.2;;;2.3;;
13057;SDS011;6595;49.578;11.012;2023-10-31T01:42:23;3.4;;;2.3;;
13057;SDS011;6595;49.578;11.012;2023-10-31T01:44:23;3.4;;;2.3;;
13057;SDS011;6595;49.578;11.012;2023-10-31T01:46:23;3.7;;;2.4;;
13057;SDS011;6595;49.578;11.012;2023-10-31T01:48:23;3.4;;;2.0;;
13057;SDS011;6595;49.578;11.012;2023-10-31T01:50:24;4.2;;;2.0;;
13057;SDS011;6595;49.578;11.012;2023-10-31T01:52:23;2.4;;;1.8;;
13057;SDS011;6595;49.578;11.012;2023-10-31T01:54:23;2.4;;;1.8;;
13057;SDS011;6595;49.578;11.012;2023-10-31T01:56:23;3.2;;;1.8;;
13057;SDS011;6595;49.578;11.012;2023-10-31T01:58:25;2.3;;;1.7;;
13057;SDS011;6595;49.578;11.012;2023-10-31T02:00:24;1.9;;;1.6;;
13057;SDS011;6595;49.578;11.012;2023-10-31T02:02:23;1.9;;;1.6;;
13057;SDS011;6595;49.578;11.012;2023-10-31T02:04:23;1.9;;;1.6;;
13057;SDS011;6595;49.578;11.012;2023-10-31T02:06:23;1.7;;;1.5;;
13057;SDS011;6595;49.578;11.012;2023-10-31T02:08:24;3.0;;;1.6;;
13057;SDS011;6595;49.578;11.012;2023-10-31T02:10:24;3.0;;;1.6;;
13057;SDS011;6595;49.578;11.012;2023-10-31T02:12:30;1.9;;;1.4;;
13057;SDS011;6595;49.578;11.012;2023-10-31T02:14:24;1.7;;;1.5;;
13057;SDS011;6595;49.578;11.012;2023-10-31T02:16:23;2.0;;;1.2;;
13057;SDS011;6595;49.578;11.012;2023-10-31T02:18:23;1.5;;;1.3;;
13057;SDS011;6595;49.578;11.012;2023-10-31T02:20:23;1.5;;;1.3;;
13057;SDS011;6595;49.578;11.012;2023-10-31T02:22:23;1.6;;;1.4;;
13057;SDS011;6595;49.578;11.012;2023-10-31T02:24:23;1.6;;;1.4;;
13057;SDS011;6595;49.578;11.012;2023-10-31T02:26:23;1.7;;;1.4;;
13057;SDS011;6595;49.578;11.012;2023-10-31T02:28:23;1.7;;;1.4;;
13057;SDS011;6595;49.578;11.012;2023-10-31T02:30:24;1.5;;;1.4;;
13057;SDS011;6595;49.578;11.012;2023-10-31T02:32:24;2.9;;;1.3;;
13057;SDS011;6595;49.578;11.012;2023-10-31T02:34:24;2.9;;;1.3;;
13057;SDS011;6595;49.578;11.012;2023-10-31T02:36:23;1.6;;;1.4;;
13057;SDS011;6595;49.578;11.012;2023-10-31T02:38:23;1.6;;;1.4;;
13057;SDS011;6595;49.578;11.012;2023-10-31T02:40:23;2.3;;;1.4;;
13057;SDS011;6595;49.578;11.012;2023-10-31T02:42:24;2.3;;;1.4;;
13057;SDS011;6595;49.578;11.012;2023-10-31T02:44:24;3.2;;;1.4;;
13057;SDS011;6595;49.578;11.012;2023-10-31T02:46:23;1.9;;;1.4;;
13057;SDS011;6595;49.578;11.012;2023-10-31T02:48:24;1.9;;;1.4;;
13057;SDS011;6595;49.578;11.012;2023-10-31T02:50:23;1.7;;;1.3;;
13057;SDS011;6595;49.578;11.012;2023-10-31T02:52:24;1.7;;;1.3;;
13057;SDS011;6595;49.578;11.012;2023-10-31T02:54:23;1.7;;;1.4;;
13057;SDS011;6595;49.578;11.012;2023-10-31T02:56:23;1.4;;;1.3;;
13057;SDS011;6595;49.578;11.012;2023-10-31T02:58:23;1.4;;;1.3;;
13057;SDS011;6595;49.578;11.012;2023-10-31T03:00:24;2.1;;;1.4;;
13057;SDS011;6595;49.578;11.012;2023-10-31T03:02:23;1.3;;;1.2;;
13057;SDS011;6595;49.578;11.012;2023-10-31T03:04:23;1.3;;;1.2;;
13057;SDS011;6595;49.578;11.012;2023-10-31T03:06:23;1.3;;;1.2;;
13057;SDS011;6595;49.578;11.012;2023-10-31T03:08:23;1.3;;;1.2;;
13057;SDS011;6595;49.578;11.012;2023-10-31T03:10:23;1.6;;;1.3;;
13057;SDS011;6595;49.578;11.012;2023-10-31T03:12:23;1.4;;;1.3;;
13057;SDS011;6595;49.578;11.012;2023-10-31T03:14:24;1.4;;;1.3;;
13057;SDS011;6595;49.578;11.012;2023-10-31T03:16:24;1.5;;;1.3;;
13057;SDS011;6595;49.578;11.012;2023-10-31T03:18:23;1.4;;;1.3;;
13057;SDS011;6595;49.578;11.012;2023-10-31T03:20:23;1.4;;;1.3;;
13057;SDS011;6595;49.578;11.012;2023-10-31T03:22:23;1.6;;;1.4;;
13057;SDS011;6595;49.578;11.012;2023-10-31T03:24:23;1.6;;;1.3;;
13057;SDS011;6595;49.578;11.012;2023-10-31T03:26:23;1.3;;;1.2;;
13057;SDS011;6595;49.578;11.012;2023-10-31T03:28:23;1.3;;;1.2;;
13057;SDS011;6595;49.578;11.012;2023-10-31T03:30:24;3.1;;;1.3;;
13057;SDS011;6595;49.578;11.012;2023-10-31T03:32:23;1.4;;;1.3;;
13057;SDS011;6595;49.578;11.012;2023-10-31T03:34:23;1.4;;;1.3;;
13057;SDS011;6595;49.578;11.012;2023-10-31T03:36:23;1.4;;;1.3;;
13057;SDS011;6595;49.578;11.012;2023-10-31T03:38:24;1.4;;;1.3;;
13057;SDS011;6595;49.578;11.012;2023-10-31T03:40:24;1.4;;;1.2;;
13057;SDS011;6595;49.578;11.012;2023-10-31T03:42:24;1.5;;;1.4;;
13057;SDS011;6595;49.578;11.012;2023-10-31T03:44:23;1.5;;;1.3;;
13057;SDS011;6595;49.578;11.012;2023-10-31T03:46:23;1.5;;;1.3;;
13057;SDS011;6595;49.578;11.012;2023-10-31T03:48:23;1.1;;;1.0;;
13057;SDS011;6595;49.578;11.012;2023-10-31T03:50:23;1.3;;;1.2;;
13057;SDS011;6595;49.578;11.012;2023-10-31T03:52:23;2.1;;;1.2;;
13057;SDS011;6595;49.578;11.012;2023-10-31T03:54:23;1.4;;;1.3;;
13057;SDS011;6595;49.578;11.012;2023-10-31T03:56:24;1.4;;;1.3;;
13057;SDS011;6595;49.578;11.012;2023-10-31T03:58:23;1.7;;;1.4;;
13057;SDS011;6595;49.578;11.012;2023-10-31T04:00:24;1.7;;;1.4;;
13057;SDS011;6595;49.578;11.012;2023-10-31T04:02:23;1.2;;;1.1;;
13057;SDS011;6595;49.578;11.012;2023-10-31T04:04:23;1.2;;;1.1;;
13057;SDS011;6595;49.578;11.012;2023-10-31T04:06:24;1.2;;;1.1;;
13057;SDS011;6595;49.578;11.012;2023-10-31T04:08:24;1.4;;;1.3;;
13057;SDS011;6595;49.578;11.012;2023-10-31T04:10:23;1.6;;;1.2;;
13057;SDS011;6595;49.578;11.012;2023-10-31T04:12:23;3.0;;;1.5;;
13057;SDS011;6595;49.578;11.012;2023-10-31T04:14:23;3.0;;;1.5;;
13057;SDS011;6595;49.578;11.012;2023-10-31T04:16:24;1.5;;;1.3;;
13057;SDS011;6595;49.578;11.012;2023-10-31T04:18:23;1.8;;;1.4;;
13057;SDS011;6595;49.578;11.012;2023-10-31T04:20:23;1.8;;;1.7;;
13057;SDS011;6595;49.578;11.012;2023-10-31T04:22:23;1.3;;;1.2;;
13057;SDS011;6595;49.578;11.012;2023-10-31T04:24:24;1.3;;;1.2;;
13057;SDS011;6595;49.578;11.012;2023-10-31T04:26:24;1.3;;;1.2;;
13057;SDS011;6595;49.578;11.012;2023-10-31T04:28:23;1.2;;;1.1;;
13057;SDS011;6595;49.578;11.012;2023-10-31T04:30:23;1.3;;;1.2;;
13057;SDS011;6595;49.578;11.012;2023-10-31T04:32:23;1.4;;;1.3;;
13057;SDS011;6595;49.578;11.012;2023-10-31T04:34:24;1.4;;;1.3;;
13057;SDS011;6595;49.578;11.012;2023-10-31T04:36:23;3.0;;;1.4;;
13057;SDS011;6595;49.578;11.012;2023-10-31T04:38:23;1.4;;;1.3;;
13057;SDS011;6595;49.578;11.012;2023-10-31T04:40:23;2.5;;;1.4;;
13057;SDS011;6595;49.578;11.012;2023-10-31T04:42:23;1.4;;;1.3;;
13057;SDS011;6595;49.578;11.012;2023-10-31T04:44:23;1.4;;;1.3;;
13057;SDS011;6595;49.578;11.012;2023-10-31T04:46:24;2.9;;;1.3;;
13057;SDS011;6595;49.578;11.012;2023-10-31T04:48:23;2.9;;;1.3;;
13057;SDS011;6595;49.578;11.012;2023-10-31T04:50:24;1.8;;;1.4;;
13057;SDS011;6595;49.578;11.012;2023-10-31T04:52:23;1.8;;;1.4;;
13057;SDS011;6595;49.578;11.012;2023-10-31T04:54:23;2.3;;;1.5;;
13057;SDS011;6595;49.578;11.012;2023-10-31T04:56:23;1.5;;;1.4;;
13057;SDS011;6595;49.578;11.012;2023-10-31T04:58:23;1.5;;;1.4;;
13057;SDS011;6595;49.578;11.012;2023-10-31T05:00:24;1.6;;;1.5;;
13057;SDS011;6595;49.578;11.012;2023-10-31T05:02:23;1.9;;;1.4;;
13057;SDS011;6595;49.578;11.012;2023-10-31T05:04:23;1.9;;;1.4;;
13057;SDS011;6595;49.578;11.012;2023-10-31T05:06:23;1.6;;;1.4;;
13057;SDS011;6595;49.578;11.012;2023-10-31T05:08:23;1.8;;;1.5;;
13057;SDS011;6595;49.578;11.012;2023-10-31T05:10:23;3.4;;;1.6;;
13057;SDS011;6595;49.578;11.012;2023-10-31T05:12:23;1.5;;;1.4;;
13057;SDS011;6595;49.578;11.012;2023-10-31T05:14:23;1.5;;;1.4;;
13057;SDS011;6595;49.578;11.012;2023-10-31T05:16:23;3.0;;;1.5;;
13057;SDS011;6595;49.578;11.012;2023-10-31T05:18:24;1.8;;;1.5;;
13057;SDS011;6595;49.578;11.012;2023-10-31T05:20:23;2.5;;;1.4;;
13057;SDS011;6595;49.578;11.012;2023-10-31T05:22:24;2.5;;;1.4;;
13057;SDS011;6595;49.578;11.012;2023-10-31T05:24:24;2.9;;;1.4;;
13057;SDS011;6595;49.578;11.012;2023-10-31T05:26:24;1.5;;;1.4;;
13057;SDS011;6595;49.578;11.012;2023-10-31T05:28:24;1.6;;;1.5;;
13057;SDS011;6595;49.578;11.012;2023-10-31T05:30:23;3.6;;;1.5;;
13057;SDS011;6595;49.578;11.012;2023-10-31T05:32:23;3.6;;;1.5;;
13057;SDS011;6595;49.578;11.012;2023-10-31T05:34:23;1.8;;;1.3;;
13057;SDS011;6595;49.578;11.012;2023-10-31T05:36:24;2.2;;;1.5;;
13057;SDS011;6595;49.578;11.012;2023-10-31T05:38:23;2.4;;;1.5;;
13057;SDS011;6595;49.578;11.012;2023-10-31T05:40:23;1.5;;;1.4;;
13057;SDS011;6595;49.578;11.012;2023-10-31T05:42:23;1.5;;;1.4;;
13057;SDS011;6595;49.578;11.012;2023-10-31T05:44:23;2.2;;;1.4;;
13057;SDS011;6595;49.578;11.012;2023-10-31T05:46:24;1.5;;;1.2;;
13057;SDS011;6595;49.578;11.012;2023-10-31T05:48:24;1.5;;;1.4;;
13057;SDS011;6595;49.578;11.012;2023-10-31T05:50:23;2.8;;;1.4;;
13057;SDS011;6595;49.578;11.012;2023-10-31T05:52:23;1.8;;;1.2;;
13057;SDS011;6595;49.578;11.012;2023-10-31T05:54:24;1.8;;;1.2;;
13057;SDS011;6595;49.578;11.012;2023-10-31T05:56:24;2.0;;;1.3;;
13057;SDS011;6595;49.578;11.012;2023-10-31T05:58:23;2.5;;;1.3;;
13057;SDS011;6595;49.578;11.012;2023-10-31T06:00:23;1.3;;;1.2;;
13057;SDS011;6595;49.578;11.012;2023-10-31T06:02:23;1.3;;;1.2;;
13057;SDS011;6595;49.578;11.012;2023-10-31T06:04:23;1.5;;;1.4;;
13057;SDS011;6595;49.578;11.012;2023-10-31T06:06:23;1.9;;;1.2;;
13057;SDS011;6595;49.578;11.012;2023-10-31T06:08:24;1.7;;;1.3;;
13057;SDS011;6595;49.578;11.012;2023-10-31T06:10:24;1.7;;;1.3;;
13057;SDS011;6595;49.578;11.012;2023-10-31T06:12:23;2.5;;;1.4;;
13057;SDS011;6595;49.578;11.012;2023-10-31T06:14:23;2.1;;;1.3;;
13057;SDS011;6595;49.578;11.012;2023-10-31T06:16:23;1.7;;;1.3;;
13057;SDS011;6595;49.578;11.012;2023-10-31T06:18:23;2.4;;;1.5;;
13057;SDS011;6595;49.578;11.012;2023-10-31T06:20:23;2.4;;;1.5;;
13057;SDS011;6595;49.578;11.012;2023-10-31T06:22:23;2.1;;;1.4;;
13057;SDS011;6595;49.578;11.012;2023-10-31T06:24:24;1.3;;;1.2;;
13057;SDS011;6595;49.578;11.012;2023-10-31T06:26:24;1.3;;;1.2;;
13057;SDS011;6595;49.578;11.012;2023-10-31T06:28:24;2.8;;;1.4;;
13057;SDS011;6595;49.578;11.012;2023-10-31T06:30:24;2.8;;;1.4;;
13057;SDS011;6595;49.578;11.012;2023-10-31T06:32:23;2.1;;;1.4;;
13057;SDS011;6595;49.578;11.012;2023-10-31T06:34:23;1.6;;;1.4;;
13057;SDS011;6595;49.578;11.012;2023-10-31T06:36:23;2.1;;;1.9;;
13057;SDS011;6595;49.578;11.012;2023-10-31T06:38:24;2.2;;;1.3;;
13057;SDS011;6595;49.578;11.012;2023-10-31T06:40:24;2.2;;;1.3;;
13057;SDS011;6595;49.578;11.012;2023-10-31T06:42:23;4.0;;;1.7;;
13057;SDS011;6595;49.578;11.012;2023-10-31T06:44:23;2.1;;;1.4;;
13057;SDS011;6595;49.578;11.012;2023-10-31T06:46:23;2.6;;;1.4;;
13057;SDS011;6595;49.578;11.012;2023-10-31T06:48:23;2.6;;;1.4;;
13057;SDS011;6595;49.578;11.012;2023-10-31T06:50:24;2.9;;;1.5;;
13057;SDS011;6595;49.578;11.012;2023-10-31T06:52:24;3.0;;;1.6;;
13057;SDS011;6595;49.578;11.012;2023-10-31T06:54:23;2.7;;;1.3;;
13057;SDS011;6595;49.578;11.012;2023-10-31T06:56:23;2.1;;;1.6;;
13057;SDS011;6595;49.578;11.012;2023-10-31T06:58:23;2.1;;;1.6;;
13057;SDS011;6595;49.578;11.012;2023-10-31T07:00:24;2.4;;;1.5;;
13057;SDS011;6595;49.578;11.012;2023-10-31T07:02:24;2.2;;;1.4;;
13057;SDS011;6595;49.578;11.012;2023-10-31T07:04:23;2.6;;;1.6;;
13057;SDS011;6595;49.578;11.012;2023-10-31T07:06:23;2.0;;;1.6;;
13057;SDS011;6595;49.578;11.012;2023-10-31T07:08:23;2.0;;;1.6;;
13057;SDS011;6595;49.578;11.012;2023-10-31T07:10:24;1.5;;;1.4;;
13057;SDS011;6595;49.578;11.012;2023-10-31T07:12:24;2.0;;;1.5;;
13057;SDS011;6595;49.578;11.012;2023-10-31T07:14:23;2.4;;;1.4;;
13057;SDS011;6595;49.578;11.012;2023-10-31T07:16:23;2.2;;;1.3;;
13057;SDS011;6595;49.578;11.012;2023-10-31T07:18:24;2.2;;;1.3;;
13057;SDS011;6595;49.578;11.012;2023-10-31T07:20:23;2.4;;;1.4;;
13057;SDS011;6595;49.578;11.012;2023-10-31T07:22:23;1.7;;;1.6;;
13057;SDS011;6595;49.578;11.012;2023-10-31T07:24:23;1.9;;;1.5;;
13057;SDS011;6595;49.578;11.012;2023-10-31T07:26:23;3.4;;;1.5;;
13057;SDS011;6595;49.578;11.012;2023-10-31T07:28:23;3.4;;;1.5;;
13057;SDS011;6595;49.578;11.012;2023-10-31T07:30:24;3.3;;;1.5;;
13057;SDS011;6595;49.578;11.012;2023-10-31T07:32:24;2.3;;;1.3;;
13057;SDS011;6595;49.578;11.012;2023-10-31T07:34:23;2.3;;;1.3;;
13057;SDS011;6595;49.578;11.012;2023-10-31T07:36:23;1.7;;;1.2;;
13057;SDS011;6595;49.578;11.012;2023-10-31T07:38:23;1.7;;;1.2;;
13057;SDS011;6595;49.578;11.012;2023-10-31T07:40:23;1.8;;;1.2;;
13057;SDS011;6595;49.578;11.012;2023-10-31T07:42:23;1.8;;;1.2;;
13057;SDS011;6595;49.578;11.012;2023-10-31T07:44:23;2.2;;;1.5;;
13057;SDS011;6595;49.578;11.012;2023-10-31T07:46:23;1.3;;;1.2;;
13057;SDS011;6595;49.578;11.012;2023-10-31T07:48:24;1.3;;;1.2;;
13057;SDS011;6595;49.578;11.012;2023-10-31T07:50:23;3.1;;;1.2;;
13057;SDS011;6595;49.578;11.012;2023-10-31T07:52:23;3.1;;;1.2;;
13057;SDS011;6595;49.578;11.012;2023-10-31T07:54:23;2.3;;;1.4;;
13057;SDS011;6595;49.578;11.012;2023-10-31T07:56:23;2.3;;;1.4;;
13057;SDS011;6595;49.578;11.012;2023-10-31T07:58:24;1.7;;;1.3;;
13057;SDS011;6595;49.578;11.012;2023-10-31T08:00:24;1.7;;;1.3;;
13057;SDS011;6595;49.578;11.012;2023-10-31T08:02:23;2.7;;;1.3;;
13057;SDS011;6595;49.578;11.012;2023-10-31T08:04:23;3.4;;;1.2;;
13057;SDS011;6595;49.578;11.012;2023-10-31T08:06:23;3.4;;;1.2;;
13057;SDS011;6595;49.578;11.012;2023-10-31T08:08:23;2.0;;;1.3;;
13057;SDS011;6595;49.578;11.012;2023-10-31T08:10:23;2.0;;;1.3;;
13057;SDS011;6595;49.578;11.012;2023-10-31T08:12:24;3.4;;;1.5;;
13057;SDS011;6595;49.578;11.012;2023-10-31T08:14:24;3.4;;;1.5;;
13057;SDS011;6595;49.578;11.012;2023-10-31T08:16:23;2.4;;;1.4;;
13057;SDS011;6595;49.578;11.012;2023-10-31T08:18:23;2.4;;;1.4;;
13057;SDS011;6595;49.578;11.012;2023-10-31T08:20:23;2.1;;;1.2;;
13057;SDS011;6595;49.578;11.012;2023-10-31T08:22:23;3.0;;;1.3;;
13057;SDS011;6595;49.578;11.012;2023-10-31T08:24:23;3.0;;;1.3;;
13057;SDS011;6595;49.578;11.012;2023-10-31T08:26:23;2.7;;;1.4;;
13057;SDS011;6595;49.578;11.012;2023-10-31T08:28:24;3.2;;;1.2;;
13057;SDS011;6595;49.578;11.012;2023-10-31T08:30:24;2.6;;;1.3;;
13057;SDS011;6595;49.578;11.012;2023-10-31T08:32:23;2.5;;;1.2;;
13057;SDS011;6595;49.578;11.012;2023-10-31T08:34:23;1.8;;;1.1;;
13057;SDS011;6595;49.578;11.012;2023-10-31T08:36:23;1.8;;;1.1;;
13057;SDS011;6595;49.578;11.012;2023-10-31T08:38:23;1.5;;;1.1;;
13057;SDS011;6595;49.578;11.012;2023-10-31T08:40:24;1.5;;;1.1;;
13057;SDS011;6595;49.578;11.012;2023-10-31T08:42:24;2.2;;;1.3;;
13057;SDS011;6595;49.578;11.012;2023-10-31T08:44:24;2.2;;;1.3;;
13057;SDS011;6595;49.578;11.012;2023-10-31T08:46:23;2.1;;;1.2;;
13057;SDS011;6595;49.578;11.012;2023-10-31T08:48:23;4.4;;;1.4;;
13057;SDS011;6595;49.578;11.012;2023-10-31T08:50:23;2.6;;;1.2;;
13057;SDS011;6595;49.578;11.012;2023-10-31T08:52:23;1.7;;;1.2;;
13057;SDS011;6595;49.578;11.012;2023-10-31T08:54:24;1.7;;;1.2;;
13057;SDS011;6595;49.578;11.012;2023-10-31T08:56:24;1.4;;;1.3;;
13057;SDS011;6595;49.578;11.012;2023-10-31T08:58:24;2.8;;;1.1;;
13057;SDS011;6595;49.578;11.012;2023-10-31T09:00:24;2.5;;;1.3;;
13057;SDS011;6595;49.578;11.012;2023-10-31T09:02:23;2.5;;;1.3;;
13057;SDS011;6595;49.578;11.012;2023-10-31T09:04:23;2.1;;;1.2;;
13057;SDS011;6595;49.578;11.012;2023-10-31T09:06:23;2.0;;;1.3;;
13057;SDS011;6595;49.578;11.012;2023-10-31T09:08:23;2.8;;;1.3;;
13057;SDS011;6595;49.578;11.012;2023-10-31T09:10:23;2.8;;;1.3;;
13057;SDS011;6595;49.578;11.012;2023-10-31T09:12:23;1.4;;;1.3;;
13057;SDS011;6595;49.578;11.012;2023-10-31T09:14:24;1.6;;;1.4;;
13057;SDS011;6595;49.578;11.012;2023-10-31T09:16:23;1.6;;;1.4;;
13057;SDS011;6595;49.578;11.012;2023-10-31T09:18:23;1.2;;;1.1;;
13057;SDS011;6595;49.578;11.012;2023-10-31T09:20:23;2.3;;;1.3;;
13057;SDS011;6595;49.578;11.012;2023-10-31T09:22:23;2.3;;;1.3;;
13057;SDS011;6595;49.578;11.012;2023-10-31T09:24:23;1.5;;;1.2;;
13057;SDS011;6595;49.578;11.012;2023-10-31T09:26:23;1.5;;;1.2;;
13057;SDS011;6595;49.578;11.012;2023-10-31T09:28:24;1.5;;;1.2;;
13057;SDS011;6595;49.578;11.012;2023-10-31T09:30:23;1.8;;;1.1;;
13057;SDS011;6595;49.578;11.012;2023-10-31T09:32:24;2.9;;;1.2;;
13057;SDS011;6595;49.578;11.012;2023-10-31T09:34:23;2.9;;;1.2;;
13057;SDS011;6595;49.578;11.012;2023-10-31T09:36:23;2.0;;;1.0;;
13057;SDS011;6595;49.578;11.012;2023-10-31T09:38:23;2.2;;;1.1;;
13057;SDS011;6595;49.578;11.012;2023-10-31T09:40:23;0.8;;;0.8;;
13057;SDS011;6595;49.578;11.012;2023-10-31T09:42:23;0.8;;;0.8;;
13057;SDS011;6595;49.578;11.012;2023-10-31T09:44:23;1.2;;;1.0;;
13057;SDS011;6595;49.578;11.012;2023-10-31T09:46:23;1.5;;;1.2;;
13057;SDS011;6595;49.578;11.012;2023-10-31T09:48:23;1.6;;;1.3;;
13057;SDS011;6595;49.578;11.012;2023-10-31T09:50:24;2.6;;;1.3;;
13057;SDS011;6595;49.578;11.012;2023-10-31T09:52:23;2.6;;;1.3;;
13057;SDS011;6595;49.578;11.012;2023-10-31T09:54:23;2.3;;;1.2;;
13057;SDS011;6595;49.578;11.012;2023-10-31T09:56:23;1.9;;;1.2;;
13057;SDS011;6595;49.578;11.012;2023-10-31T09:58:23;1.9;;;1.2;;
13057;SDS011;6595;49.578;11.012;2023-10-31T10:00:24;1.6;;;1.2;;
13057;SDS011;6595;49.578;11.012;2023-10-31T10:02:24;1.6;;;1.2;;
13057;SDS011;6595;49.578;11.012;2023-10-31T10:04:23;2.1;;;1.1;;
13057;SDS011;6595;49.578;11.012;2023-10-31T10:06:23;2.1;;;1.1;;
13057;SDS011;6595;49.578;11.012;2023-10-31T10:08:23;2.3;;;1.4;;
13057;SDS011;6595;49.578;11.012;2023-10-31T10:10:24;2.3;;;1.4;;
13057;SDS011;6595;49.578;11.012;2023-10-31T10:12:23;3.2;;;1.3;;
13057;SDS011;6595;49.578;11.012;2023-10-31T10:14:24;1.4;;;1.3;;
13057;SDS011;6595;49.578;11.012;2023-10-31T10:16:32;1.6;;;1.3;;
13057;SDS011;6595;49.578;11.012;2023-10-31T10:18:24;2.3;;;1.4;;
13057;SDS011;6595;49.578;11.012;2023-10-31T10:20:23;2.3;;;1.4;;
13057;SDS011;6595;49.578;11.012;2023-10-31T10:22:25;2.1;;;1.5;;
13057;SDS011;6595;49.578;11.012;2023-10-31T10:24:23;2.3;;;1.6;;
13057;SDS011;6595;49.578;11.012;2023-10-31T10:26:23;2.3;;;1.6;;
13057;SDS011;6595;49.578;11.012;2023-10-31T10:28:23;3.1;;;1.6;;
13057;SDS011;6595;49.578;11.012;2023-10-31T10:30:23;3.1;;;1.6;;
13057;SDS011;6595;49.578;11.012;2023-10-31T10:32:23;1.7;;;1.5;;
13057;SDS011;6595;49.578;11.012;2023-10-31T10:34:23;1.6;;;1.4;;
13057;SDS011;6595;49.578;11.012;2023-10-31T10:36:24;1.5;;;1.4;;
13057;SDS011;6595;49.578;11.012;2023-10-31T10:38:23;2.0;;;1.6;;
13057;SDS011;6595;49.578;11.012;2023-10-31T10:40:23;2.0;;;1.6;;
13057;SDS011;6595;49.578;11.012;2023-10-31T10:42:25;1.7;;;1.5;;
13057;SDS011;6595;49.578;11.012;2023-10-31T10:44:25;2.2;;;1.5;;
13057;SDS011;6595;49.578;11.012;2023-10-31T10:46:24;2.2;;;1.4;;
13057;SDS011;6595;49.578;11.012;2023-10-31T10:48:24;3.4;;;1.6;;
13057;SDS011;6595;49.578;11.012;2023-10-31T10:50:23;3.4;;;1.6;;
13057;SDS011;6595;49.578;11.012;2023-10-31T10:52:28;1.9;;;1.4;;
13057;SDS011;6595;49.578;11.012;2023-10-31T10:54:25;2.2;;;1.5;;
13057;SDS011;6595;49.578;11.012;2023-10-31T10:56:25;2.2;;;1.5;;
13057;SDS011;6595;49.578;11.012;2023-10-31T10:58:26;1.9;;;1.5;;
13057;SDS011;6595;49.578;11.012;2023-10-31T11:00:23;2.0;;;1.4;;
13057;SDS011;6595;49.578;11.012;2023-10-31T11:02:24;2.0;;;1.4;;
13057;SDS011;6595;49.578;11.012;2023-10-31T11:04:23;2.6;;;1.5;;
13057;SDS011;6595;49.578;11.012;2023-10-31T11:06:23;2.2;;;1.5;;
13057;SDS011;6595;49.578;11.012;2023-10-31T11:08:23;3.8;;;1.6;;
13057;SDS011;6595;49.578;11.012;2023-10-31T11:10:23;3.8;;;1.6;;
13057;SDS011;6595;49.578;11.012;2023-10-31T11:12:24;2.0;;;1.6;;
13057;SDS011;6595;49.578;11.012;2023-10-31T11:14:24;2.0;;;1.6;;
13057;SDS011;6595;49.578;11.012;2023-10-31T11:16:26;3.2;;;1.8;;
13057;SDS011;6595;49.578;11.012;2023-10-31T11:18:24;1.7;;;1.6;;
13057;SDS011;6595;49.578;11.012;2023-10-31T11:20:23;1.7;;;1.6;;
13057;SDS011;6595;49.578;11.012;2023-10-31T11:22:23;2.6;;;1.6;;
13057;SDS011;6595;49.578;11.012;2023-10-31T11:24:23;2.6;;;1.6;;
13057;SDS011;6595;49.578;11.012;2023-10-31T11:26:25;2.3;;;1.6;;
13057;SDS011;6595;49.578;11.012;2023-10-31T11:28:23;2.3;;;1.6;;
13057;SDS011;6595;49.578;11.012;2023-10-31T11:30:26;2.7;;;1.6;;
13057;SDS011;6595;49.578;11.012;2023-10-31T11:32:23;2.4;;;1.6;;
13057;SDS011;6595;49.578;11.012;2023-10-31T11:34:23;1.7;;;1.6;;
13057;SDS011;6595;49.578;11.012;2023-10-31T11:36:23;3.7;;;1.7;;
13057;SDS011;6595;49.578;11.012;2023-10-31T11:38:28;3.7;;;1.7;;
13057;SDS011;6595;49.578;11.012;2023-10-31T11:40:23;2.9;;;1.6;;
13057;SDS011;6595;49.578;11.012;2023-10-31T11:42:23;4.0;;;1.8;;
13057;SDS011;6595;49.578;11.012;2023-10-31T11:44:25;2.4;;;1.5;;
13057;SDS011;6595;49.578;11.012;2023-10-31T11:46:24;2.4;;;1.5;;
13057;SDS011;6595;49.578;11.012;2023-10-31T11:48:44;4.8;;;1.6;;
13057;SDS011;6595;49.578;11.012;2023-10-31T11:50:23;3.5;;;1.8;;
13057;SDS011;6595;49.578;11.012;2023-10-31T11:52:23;5.8;;;1.9;;
13057;SDS011;6595;49.578;11.012;2023-10-31T11:54:23;3.6;;;1.7;;
13057;SDS011;6595;49.578;11.012;2023-10-31T11:56:24;3.6;;;1.7;;
13057;SDS011;6595;49.578;11.012;2023-10-31T11:58:24;3.2;;;1.8;;
13057;SDS011;6595;49.578;11.012;2023-10-31T12:00:24;1.9;;;1.5;;
13057;SDS011;6595;49.578;11.012;2023-10-31T12:02:23;2.2;;;1.4;;
13057;SDS011;6595;49.578;11.012;2023-10-31T12:04:23;2.0;;;1.5;;
13057;SDS011;6595;49.578;11.012;2023-10-31T12:06:23;2.0;;;1.5;;
13057;SDS011;6595;49.578;11.012;2023-10-31T12:08:25;4.0;;;1.6;;
13057;SDS011;6595;49.578;11.012;2023-10-31T12:10:24;3.6;;;1.6;;
13057;SDS011;6595;49.578;11.012;2023-10-31T12:12:30;2.9;;;1.8;;
13057;SDS011;6595;49.578;11.012;2023-10-31T12:14:24;3.2;;;1.5;;
13057;SDS011;6595;49.578;11.012;2023-10-31T12:16:24;3.2;;;1.5;;
13057;SDS011;6595;49.578;11.012;2023-10-31T12:18:23;3.4;;;1.7;;
13057;SDS011;6595;49.578;11.012;2023-10-31T12:20:23;3.4;;;1.7;;
13057;SDS011;6595;49.578;11.012;2023-10-31T12:22:23;2.9;;;1.5;;
13057;SDS011;6595;49.578;11.012;2023-10-31T12:24:23;1.7;;;1.3;;